Lewek Teal — V7ZE4 — position and weather

sailwx.info

Track history (hours):
 
Tides and Currents Weather Stations Pressure Air Temp Water Temp Dewpoint Dewpoint Depression Visibility Wind Speed Wind Dir Waves Ship Positions

Lewek Teal

Last reported at 2017-Sep-24 14:33 UTC. Time now 2017-Oct-18 07:43 UTC.
Position N 22°13' E 120°08'.
Warning: this ship's position is 23 days out of date.

Length 92 m; draft 6.5 m.

Type: Tug. MMSI: 538004803.

Date/timePositionNaut miles runAvg speedWind from/ knotsBaromVisibWave heightAir tempDewpointWater temp
2017-Sep-24 14:33N 22°13' E 120°08'111.0
2017-Sep-24 14:29N 22°14' E 120°08'511.0
2017-Sep-24 14:00N 22°19' E 120°08'610.9
2017-Sep-24 13:30N 22°24' E 120°07'510.7
2017-Sep-24 13:00N 22°29' E 120°07'510.7
2017-Sep-24 12:30N 22°35' E 120°06'5 9.2
2017-Sep-24 12:00N 22°39' E 120°08'4 7.9
2017-Sep-24 11:30N 22°38' E 120°13'4 7.2
2017-Sep-24 11:00N 22°37' E 120°16'1 1.5
2017-Sep-24 10:28N 22°37' E 120°17'0 0.0
2017-Sep-24 09:58N 22°37' E 120°17'0 0.0
2017-Sep-24 09:28N 22°37' E 120°17'0 0.0
2017-Sep-24 08:58N 22°37' E 120°17'0 0.0
2017-Sep-24 08:28N 22°37' E 120°17'0 0.0
2017-Sep-24 07:55N 22°37' E 120°17'0 0.0
2017-Sep-24 07:22N 22°37' E 120°17'0 0.0
2017-Sep-24 06:58N 22°37' E 120°17'0 0.0
2017-Sep-24 06:28N 22°37' E 120°17'0 0.0
2017-Sep-24 05:58N 22°37' E 120°17'0 0.0
2017-Sep-24 05:28N 22°37' E 120°17'0 0.0
2017-Sep-24 04:58N 22°37' E 120°17'0 0.0
2017-Sep-24 04:16N 22°37' E 120°17'0 0.0
2017-Sep-24 03:58N 22°37' E 120°17'0 0.0
2017-Sep-24 03:25N 22°37' E 120°17'0 0.0
2017-Sep-24 02:55N 22°37' E 120°17'0 0.0
2017-Sep-24 02:28N 22°37' E 120°17'0 0.0
2017-Sep-24 01:58N 22°37' E 120°17'0 0.0
2017-Sep-24 01:28N 22°37' E 120°17'0 0.0
2017-Sep-24 00:58N 22°37' E 120°17'0 0.0
2017-Sep-24 00:28N 22°37' E 120°17'0 0.0
2017-Sep-23 23:52N 22°37' E 120°17'0 0.0
2017-Sep-23 23:30N 22°37' E 120°17'1 2.0
2017-Sep-23 23:00N 22°37' E 120°16'3 6.2
2017-Sep-23 22:30N 22°37' E 120°13'1 1.8
2017-Sep-23 22:00N 22°36' E 120°13'0 0.0
2017-Sep-23 21:28N 22°36' E 120°13'0 0.0
2017-Sep-23 20:58N 22°36' E 120°13'0 0.0
2017-Sep-23 20:28N 22°36' E 120°13'0 0.0
2017-Sep-23 19:58N 22°36' E 120°13'  
2017-Sep-19 13:23N 38°10' E 121°42'411.3
2017-Sep-19 13:00N 38°13' E 121°37'1412.1
2017-Sep-19 11:49N 38°21' E 121°23'412.9
2017-Sep-19 11:30N 38°23' E 121°18'712.9
2017-Sep-19 10:59N 38°26' E 121°10'2012.8
2017-Sep-19 09:24N 38°35' E 120°47'513.0
2017-Sep-19 09:00N 38°37' E 120°41'1312.7
2017-Sep-19 07:59N 38°43' E 120°27'612.5
2017-Sep-19 07:28N 38°46' E 120°19'712.1
2017-Sep-19 06:52N 38°49' E 120°11'1111.7
2017-Sep-19 05:56N 38°52' E 119°57'711.4
2017-Sep-19 05:19N 38°54' E 119°49'411.3
2017-Sep-19 05:00N 38°55' E 119°44'32 0.7
2017-Sep-17 07:26N 39°09' E 119°07'0 0.1
2017-Sep-17 06:56N 39°09' E 119°07'0 0.1
2017-Sep-17 06:26N 39°09' E 119°07'0 0.0
2017-Sep-17 05:56N 39°09' E 119°07'148 4.6
2017-Sep-15 21:39N 40°18' E 121°57'210.0
2017-Sep-15 21:29N 40°18' E 121°59'5 9.6
2017-Sep-15 21:00N 40°17' E 122°05'2 3.7
2017-Sep-15 20:30N 40°15' E 122°06'0 0.0
2017-Sep-15 20:00N 40°15' E 122°06'0 0.0
2017-Sep-15 19:30N 40°15' E 122°06'0 0.0
2017-Sep-15 19:00N 40°15' E 122°06'0 0.0
2017-Sep-15 18:30N 40°15' E 122°06'0 0.0
2017-Sep-15 18:00N 40°15' E 122°06'0 0.0
2017-Sep-15 17:30N 40°15' E 122°06'0 0.0
2017-Sep-15 17:00N 40°15' E 122°06'0 0.0
2017-Sep-15 16:30N 40°15' E 122°06'0 0.0
2017-Sep-15 16:00N 40°15' E 122°06'0 0.0
2017-Sep-15 15:30N 40°15' E 122°06'0 0.0
2017-Sep-15 15:00N 40°15' E 122°06'0 0.0
2017-Sep-15 14:30N 40°15' E 122°06'0 0.0
2017-Sep-15 14:00N 40°15' E 122°06'0 0.0
2017-Sep-15 13:30N 40°15' E 122°06'0 0.0
2017-Sep-15 13:00N 40°15' E 122°06'0 0.0
2017-Sep-15 12:30N 40°15' E 122°06'0 0.0
2017-Sep-15 12:00N 40°15' E 122°06'0 0.0
2017-Sep-15 11:30N 40°15' E 122°06'0 0.0
2017-Sep-15 11:00N 40°15' E 122°06'0 0.0
2017-Sep-15 10:30N 40°15' E 122°06'0 0.0
2017-Sep-15 10:00N 40°15' E 122°06'0 0.0
2017-Sep-15 09:30N 40°15' E 122°06'0 0.0
2017-Sep-15 09:00N 40°15' E 122°06'0 0.0
2017-Sep-15 08:30N 40°15' E 122°06'0 0.0
2017-Sep-15 08:00N 40°15' E 122°06'0 0.0
2017-Sep-15 07:18N 40°15' E 122°06'0 0.0
2017-Sep-15 07:00N 40°15' E 122°06'0 0.0
2017-Sep-15 06:18N 40°15' E 122°06'0 0.0
2017-Sep-15 06:00N 40°15' E 122°06'0 0.0
2017-Sep-15 05:30N 40°15' E 122°06'0 0.0
2017-Sep-15 05:00N 40°15' E 122°06'0 0.0
2017-Sep-15 04:30N 40°15' E 122°06'0 0.0
2017-Sep-15 04:00N 40°15' E 122°06'0 0.0
2017-Sep-15 03:24N 40°15' E 122°06'0 0.0
2017-Sep-15 02:54N 40°15' E 122°06'0 0.0
2017-Sep-15 02:30N 40°15' E 122°06'0 0.0
2017-Sep-15 02:00N 40°15' E 122°06'0 0.0
2017-Sep-15 01:24N 40°15' E 122°06'0 0.0
2017-Sep-15 01:00N 40°15' E 122°06'0 0.0
2017-Sep-15 00:30N 40°15' E 122°06'0 0.0
2017-Sep-15 00:00N 40°15' E 122°06'0 0.0
2017-Sep-14 23:24N 40°15' E 122°06'0 0.0
2017-Sep-14 22:54N 40°15' E 122°06'0 0.0
2017-Sep-14 22:30N 40°15' E 122°06'0 0.0
2017-Sep-14 22:00N 40°15' E 122°06'0 0.0
2017-Sep-14 21:30N 40°15' E 122°06'0 0.0
2017-Sep-14 20:48N 40°15' E 122°06'0 0.0
2017-Sep-14 20:30N 40°15' E 122°06'0 0.0
2017-Sep-14 20:00N 40°15' E 122°06'0 0.0
2017-Sep-14 19:30N 40°15' E 122°06'0 0.0
2017-Sep-14 19:00N 40°15' E 122°06'0 0.0
2017-Sep-14 18:30N 40°15' E 122°06'0 0.0
2017-Sep-14 18:00N 40°15' E 122°06'0 0.0
2017-Sep-14 17:24N 40°15' E 122°06'0 0.0
2017-Sep-14 16:36N 40°15' E 122°06'0 0.0
2017-Sep-14 16:30N 40°15' E 122°06'0 0.0
2017-Sep-14 16:00N 40°15' E 122°06'0 0.0
2017-Sep-14 15:30N 40°15' E 122°06'0 0.0
2017-Sep-14 15:00N 40°15' E 122°06'  
Track history (hours):
 
Tides and Currents Weather Stations Pressure Air Temp Water Temp Dewpoint Dewpoint Depression Visibility Wind Speed Wind Dir Waves Ship Positions

Lewek Teal

Last reported at 2017-Sep-24 14:33 UTC. Time now 2017-Oct-18 07:43 UTC.
Position N 22°13' E 120°08'.
Warning: this ship's position is 23 days out of date.

Length 92 m; draft 6.5 m.

Type: Tug. MMSI: 538004803.

Date/timePositionNaut miles runAvg speedWind from/ knotsBaromVisibWave heightAir tempDewpointWater temp
2017-Sep-24 14:33N 22°13' E 120°08'111.0
2017-Sep-24 14:29N 22°14' E 120°08'511.0
2017-Sep-24 14:00N 22°19' E 120°08'610.9
2017-Sep-24 13:30N 22°24' E 120°07'510.7
2017-Sep-24 13:00N 22°29' E 120°07'510.7
2017-Sep-24 12:30N 22°35' E 120°06'5 9.2
2017-Sep-24 12:00N 22°39' E 120°08'4 7.9
2017-Sep-24 11:30N 22°38' E 120°13'4 7.2
2017-Sep-24 11:00N 22°37' E 120°16'1 1.5
2017-Sep-24 10:28N 22°37' E 120°17'0 0.0
2017-Sep-24 09:58N 22°37' E 120°17'0 0.0
2017-Sep-24 09:28N 22°37' E 120°17'0 0.0
2017-Sep-24 08:58N 22°37' E 120°17'0 0.0
2017-Sep-24 08:28N 22°37' E 120°17'0 0.0
2017-Sep-24 07:55N 22°37' E 120°17'0 0.0
2017-Sep-24 07:22N 22°37' E 120°17'0 0.0
2017-Sep-24 06:58N 22°37' E 120°17'0 0.0
2017-Sep-24 06:28N 22°37' E 120°17'0 0.0
2017-Sep-24 05:58N 22°37' E 120°17'0 0.0
2017-Sep-24 05:28N 22°37' E 120°17'0 0.0
2017-Sep-24 04:58N 22°37' E 120°17'0 0.0
2017-Sep-24 04:16N 22°37' E 120°17'0 0.0
2017-Sep-24 03:58N 22°37' E 120°17'0 0.0
2017-Sep-24 03:25N 22°37' E 120°17'0 0.0
2017-Sep-24 02:55N 22°37' E 120°17'0 0.0
2017-Sep-24 02:28N 22°37' E 120°17'0 0.0
2017-Sep-24 01:58N 22°37' E 120°17'0 0.0
2017-Sep-24 01:28N 22°37' E 120°17'0 0.0
2017-Sep-24 00:58N 22°37' E 120°17'0 0.0
2017-Sep-24 00:28N 22°37' E 120°17'0 0.0
2017-Sep-23 23:52N 22°37' E 120°17'0 0.0
2017-Sep-23 23:30N 22°37' E 120°17'1 2.0
2017-Sep-23 23:00N 22°37' E 120°16'3 6.2
2017-Sep-23 22:30N 22°37' E 120°13'1 1.8
2017-Sep-23 22:00N 22°36' E 120°13'0 0.0
2017-Sep-23 21:28N 22°36' E 120°13'0 0.0
2017-Sep-23 20:58N 22°36' E 120°13'0 0.0
2017-Sep-23 20:28N 22°36' E 120°13'0 0.0
2017-Sep-23 19:58N 22°36' E 120°13'  
2017-Sep-19 13:23N 38°10' E 121°42'411.3
2017-Sep-19 13:00N 38°13' E 121°37'1412.1
2017-Sep-19 11:49N 38°21' E 121°23'412.9
2017-Sep-19 11:30N 38°23' E 121°18'712.9
2017-Sep-19 10:59N 38°26' E 121°10'2012.8
2017-Sep-19 09:24N 38°35' E 120°47'513.0
2017-Sep-19 09:00N 38°37' E 120°41'1312.7
2017-Sep-19 07:59N 38°43' E 120°27'612.5
2017-Sep-19 07:28N 38°46' E 120°19'712.1
2017-Sep-19 06:52N 38°49' E 120°11'1111.7
2017-Sep-19 05:56N 38°52' E 119°57'711.4
2017-Sep-19 05:19N 38°54' E 119°49'411.3
2017-Sep-19 05:00N 38°55' E 119°44'32 0.7
2017-Sep-17 07:26N 39°09' E 119°07'0 0.1
2017-Sep-17 06:56N 39°09' E 119°07'0 0.1
2017-Sep-17 06:26N 39°09' E 119°07'0 0.0
2017-Sep-17 05:56N 39°09' E 119°07'148 4.6
2017-Sep-15 21:39N 40°18' E 121°57'210.0
2017-Sep-15 21:29N 40°18' E 121°59'5 9.6
2017-Sep-15 21:00N 40°17' E 122°05'2 3.7
2017-Sep-15 20:30N 40°15' E 122°06'0 0.0
2017-Sep-15 20:00N 40°15' E 122°06'0 0.0
2017-Sep-15 19:30N 40°15' E 122°06'0 0.0
2017-Sep-15 19:00N 40°15' E 122°06'0 0.0
2017-Sep-15 18:30N 40°15' E 122°06'0 0.0
2017-Sep-15 18:00N 40°15' E 122°06'0 0.0
2017-Sep-15 17:30N 40°15' E 122°06'0 0.0
2017-Sep-15 17:00N 40°15' E 122°06'0 0.0
2017-Sep-15 16:30N 40°15' E 122°06'0 0.0
2017-Sep-15 16:00N 40°15' E 122°06'0 0.0
2017-Sep-15 15:30N 40°15' E 122°06'0 0.0
2017-Sep-15 15:00N 40°15' E 122°06'0 0.0
2017-Sep-15 14:30N 40°15' E 122°06'0 0.0
2017-Sep-15 14:00N 40°15' E 122°06'0 0.0
2017-Sep-15 13:30N 40°15' E 122°06'0 0.0
2017-Sep-15 13:00N 40°15' E 122°06'0 0.0
2017-Sep-15 12:30N 40°15' E 122°06'0 0.0
2017-Sep-15 12:00N 40°15' E 122°06'0 0.0
2017-Sep-15 11:30N 40°15' E 122°06'0 0.0
2017-Sep-15 11:00N 40°15' E 122°06'0 0.0
2017-Sep-15 10:30N 40°15' E 122°06'0 0.0
2017-Sep-15 10:00N 40°15' E 122°06'0 0.0
2017-Sep-15 09:30N 40°15' E 122°06'0 0.0
2017-Sep-15 09:00N 40°15' E 122°06'0 0.0
2017-Sep-15 08:30N 40°15' E 122°06'0 0.0
2017-Sep-15 08:00N 40°15' E 122°06'0 0.0
2017-Sep-15 07:18N 40°15' E 122°06'0 0.0
2017-Sep-15 07:00N 40°15' E 122°06'0 0.0
2017-Sep-15 06:18N 40°15' E 122°06'0 0.0
2017-Sep-15 06:00N 40°15' E 122°06'0 0.0
2017-Sep-15 05:30N 40°15' E 122°06'0 0.0
2017-Sep-15 05:00N 40°15' E 122°06'0 0.0
2017-Sep-15 04:30N 40°15' E 122°06'0 0.0
2017-Sep-15 04:00N 40°15' E 122°06'0 0.0
2017-Sep-15 03:24N 40°15' E 122°06'0 0.0
2017-Sep-15 02:54N 40°15' E 122°06'0 0.0
2017-Sep-15 02:30N 40°15' E 122°06'0 0.0
2017-Sep-15 02:00N 40°15' E 122°06'0 0.0
2017-Sep-15 01:24N 40°15' E 122°06'0 0.0
2017-Sep-15 01:00N 40°15' E 122°06'0 0.0
2017-Sep-15 00:30N 40°15' E 122°06'0 0.0
2017-Sep-15 00:00N 40°15' E 122°06'0 0.0
2017-Sep-14 23:24N 40°15' E 122°06'0 0.0
2017-Sep-14 22:54N 40°15' E 122°06'0 0.0
2017-Sep-14 22:30N 40°15' E 122°06'0 0.0
2017-Sep-14 22:00N 40°15' E 122°06'0 0.0
2017-Sep-14 21:30N 40°15' E 122°06'0 0.0
2017-Sep-14 20:48N 40°15' E 122°06'0 0.0
2017-Sep-14 20:30N 40°15' E 122°06'0 0.0
2017-Sep-14 20:00N 40°15' E 122°06'0 0.0
2017-Sep-14 19:30N 40°15' E 122°06'0 0.0
2017-Sep-14 19:00N 40°15' E 122°06'0 0.0
2017-Sep-14 18:30N 40°15' E 122°06'0 0.0
2017-Sep-14 18:00N 40°15' E 122°06'0 0.0
2017-Sep-14 17:24N 40°15' E 122°06'0 0.0
2017-Sep-14 16:36N 40°15' E 122°06'0 0.0
2017-Sep-14 16:30N 40°15' E 122°06'0 0.0
2017-Sep-14 16:00N 40°15' E 122°06'0 0.0
2017-Sep-14 15:30N 40°15' E 122°06'0 0.0
2017-Sep-14 15:00N 40°15' E 122°06'  

Dump ship's entire track history